createdAt,value
2023-03-24T00:01:08.607Z,100587.29
2023-03-24T00:03:38.260Z,100580.95
2023-03-24T00:06:08.948Z,100582.00
2023-03-24T00:08:38.154Z,100580.55
2023-03-24T00:11:08.576Z,100582.08
2023-03-24T00:13:38.554Z,100582.35
2023-03-24T00:16:17.184Z,100584.22
2023-03-24T00:18:50.740Z,100580.91
2023-03-24T00:21:21.971Z,100581.17
2023-03-24T00:23:51.148Z,100579.29
2023-03-24T00:26:19.628Z,100578.23
2023-03-24T00:28:53.225Z,100576.29
2023-03-24T00:31:25.161Z,100573.08
2023-03-24T00:33:54.489Z,100572.71
2023-03-24T00:36:25.043Z,100577.30
2023-03-24T00:38:54.644Z,100577.48
2023-03-24T00:41:28.215Z,100578.59
2023-03-24T00:44:00.702Z,100578.95
2023-03-24T00:46:30.266Z,100580.16
2023-03-24T00:49:07.512Z,100580.15
2023-03-24T00:51:41.843Z,100586.05
2023-03-24T00:54:12.887Z,100587.92
2023-03-24T00:56:43.994Z,100588.11
2023-03-24T00:59:14.218Z,100588.66
2023-03-24T01:01:43.922Z,100584.10
2023-03-24T01:04:14.456Z,100586.92
2023-03-24T01:06:45.192Z,100586.20
2023-03-24T01:09:13.876Z,100586.71
2023-03-24T01:11:45.636Z,100591.58
2023-03-24T01:14:14.840Z,100590.70
2023-03-24T01:16:43.678Z,100596.54
2023-03-24T01:19:12.505Z,100598.02
2023-03-24T01:21:42.570Z,100599.11
2023-03-24T01:24:11.231Z,100596.29
2023-03-24T01:26:41.425Z,100594.33
2023-03-24T01:29:10.320Z,100595.34
2023-03-24T01:31:39.440Z,100595.45
2023-03-24T01:34:08.814Z,100591.45
2023-03-24T01:36:38.836Z,100591.87
2023-03-24T01:39:08.042Z,100590.20
2023-03-24T01:41:38.327Z,100587.95
2023-03-24T01:44:25.870Z,100593.98
2023-03-24T01:46:55.899Z,100591.28
2023-03-24T01:49:26.760Z,100596.92
2023-03-24T01:51:57.905Z,100598.04
2023-03-24T01:54:34.858Z,100595.50
2023-03-24T01:57:14.805Z,100599.48
2023-03-24T01:59:47.335Z,100599.69
2023-03-24T02:02:25.353Z,100601.84
2023-03-24T02:05:02.625Z,100604.55
2023-03-24T02:08:20.111Z,100609.70
2023-03-24T02:10:50.535Z,100609.89
2023-03-24T02:13:19.020Z,100611.67
2023-03-24T02:16:03.294Z,100609.64
2023-03-24T02:18:47.766Z,100615.51
2023-03-24T02:21:38.422Z,100610.23
2023-03-24T02:24:32.340Z,100612.95
2023-03-24T02:27:32.933Z,100616.17
2023-03-24T02:30:24.880Z,100614.88
2023-03-24T02:33:14.361Z,100618.85
2023-03-24T02:35:55.937Z,100615.61
2023-03-24T02:38:27.990Z,100620.61
2023-03-24T02:41:09.069Z,100624.07
2023-03-24T02:43:57.416Z,100624.52
2023-03-24T02:46:48.117Z,100622.73
2023-03-24T02:49:39.331Z,100625.29
2023-03-24T02:52:15.083Z,100628.84
2023-03-24T02:54:52.473Z,100630.26
2023-03-24T02:57:44.088Z,100634.86
2023-03-24T03:00:47.253Z,100635.28
2023-03-24T03:03:40.058Z,100635.16
2023-03-24T03:06:18.289Z,100632.23
2023-03-24T03:08:49.702Z,100630.31
2023-03-24T03:11:19.097Z,100629.75
2023-03-24T03:13:54.963Z,100625.96
2023-03-24T03:16:34.864Z,100629.29
2023-03-24T03:19:10.215Z,100639.33
2023-03-24T03:21:43.183Z,100642.08
2023-03-24T03:24:20.258Z,100646.05
2023-03-24T03:27:00.484Z,100647.45
2023-03-24T03:29:34.430Z,100653.74
2023-03-24T03:32:12.996Z,100657.94
2023-03-24T03:35:20.903Z,100657.20
2023-03-24T03:38:20.104Z,100657.94
2023-03-24T03:40:56.651Z,100658.23
2023-03-24T03:43:28.635Z,100657.70
2023-03-24T03:46:12.968Z,100652.11
2023-03-24T03:48:42.799Z,100653.92
2023-03-24T03:51:14.333Z,100651.63
2023-03-24T03:54:13.775Z,100647.20
2023-03-24T03:56:43.375Z,100650.35
2023-03-24T03:59:25.898Z,100650.60
2023-03-24T04:01:55.024Z,100647.67
2023-03-24T04:04:38.332Z,100644.94
2023-03-24T04:07:53.375Z,100642.27
2023-03-24T04:11:06.803Z,100646.08
2023-03-24T04:13:50.196Z,100646.73
2023-03-24T04:16:56.755Z,100644.84
2023-03-24T04:19:39.115Z,100642.61
2023-03-24T04:22:24.392Z,100637.41
2023-03-24T04:25:08.334Z,100633.72
2023-03-24T04:27:48.399Z,100639.00
2023-03-24T04:30:25.990Z,100638.27
2023-03-24T04:33:07.682Z,100636.45
2023-03-24T04:35:44.282Z,100639.63
2023-03-24T04:38:38.637Z,100643.52
2023-03-24T04:41:30.249Z,100644.40
2023-03-24T04:44:08.570Z,100642.58
2023-03-24T04:46:44.959Z,100643.56
2023-03-24T04:49:19.875Z,100647.85
2023-03-24T04:51:49.869Z,100646.41
2023-03-24T04:54:30.136Z,100650.73
2023-03-24T04:57:04.842Z,100656.79
2023-03-24T04:59:49.826Z,100659.16
2023-03-24T05:02:21.606Z,100658.09
2023-03-24T05:05:08.619Z,100653.82
2023-03-24T05:07:44.351Z,100652.19
2023-03-24T05:10:15.300Z,100644.91
2023-03-24T05:12:50.678Z,100647.42
2023-03-24T05:15:37.858Z,100649.14
2023-03-24T05:18:25.077Z,100652.32
2023-03-24T05:20:54.777Z,100654.86
2023-03-24T05:23:23.781Z,100656.61
2023-03-24T05:25:54.530Z,100656.23
2023-03-24T05:28:25.960Z,100657.55
2023-03-24T05:30:55.834Z,100656.20
2023-03-24T05:33:43.817Z,100659.98
2023-03-24T05:36:14.889Z,100661.42
2023-03-24T05:38:48.858Z,100663.87
2023-03-24T05:41:17.663Z,100664.84
2023-03-24T05:43:46.643Z,100661.79
2023-03-24T05:46:16.576Z,100658.47
2023-03-24T05:48:47.177Z,100661.32
2023-03-24T05:51:27.878Z,100662.17
2023-03-24T05:54:06.511Z,100665.29
2023-03-24T05:56:42.075Z,100665.91
2023-03-24T05:59:17.483Z,100661.31
2023-03-24T06:02:08.711Z,100657.84
2023-03-24T06:04:49.466Z,100657.77
2023-03-24T06:07:26.962Z,100653.76
2023-03-24T06:10:03.241Z,100652.58
2023-03-24T06:12:39.175Z,100655.19
2023-03-24T06:15:09.117Z,100655.30
2023-03-24T06:17:46.147Z,100651.69
2023-03-24T06:20:24.669Z,100652.32
2023-03-24T06:23:28.479Z,100649.61
2023-03-24T06:26:11.901Z,100646.03
2023-03-24T06:28:58.407Z,100647.95
2023-03-24T06:31:33.037Z,100636.34
2023-03-24T06:34:04.439Z,100632.74
2023-03-24T06:36:35.226Z,100636.29
2023-03-24T06:39:06.292Z,100636.56
2023-03-24T06:41:35.048Z,100635.73
2023-03-24T06:44:10.286Z,100636.45
2023-03-24T06:46:40.966Z,100633.87
2023-03-24T06:49:11.357Z,100627.44
2023-03-24T06:51:40.057Z,100627.61
2023-03-24T06:54:09.753Z,100625.69
2023-03-24T06:56:38.365Z,100623.16
2023-03-24T06:59:08.236Z,100620.55
2023-03-24T07:01:38.103Z,100618.92
2023-03-24T07:04:17.282Z,100613.90
2023-03-24T07:07:19.153Z,100606.34
2023-03-24T07:09:51.015Z,100605.88
2023-03-24T07:12:19.922Z,100605.44
2023-03-24T07:14:50.527Z,100610.54
2023-03-24T07:17:22.015Z,100617.32
2023-03-24T07:20:11.558Z,100618.58
2023-03-24T07:22:48.465Z,100619.22
2023-03-24T07:25:41.065Z,100620.10
2023-03-24T07:28:24.715Z,100619.02
2023-03-24T07:30:56.182Z,100615.88
2023-03-24T07:33:26.900Z,100614.30
2023-03-24T07:35:57.663Z,100611.42
2023-03-24T07:38:29.708Z,100616.53
2023-03-24T07:41:02.481Z,100619.69
2023-03-24T07:43:32.716Z,100619.06
2023-03-24T07:46:23.231Z,100619.80
2023-03-24T07:48:53.433Z,100620.86
2023-03-24T07:51:22.668Z,100620.23
2023-03-24T07:54:14.891Z,100620.73
2023-03-24T07:56:48.514Z,100617.20
2023-03-24T07:59:18.069Z,100618.12
2023-03-24T08:01:57.566Z,100618.92
2023-03-24T08:04:38.793Z,100615.48
2023-03-24T08:07:19.649Z,100614.50
2023-03-24T08:09:48.645Z,100613.48
2023-03-24T08:12:20.516Z,100611.52
2023-03-24T08:14:49.527Z,100606.16
2023-03-24T08:17:18.497Z,100603.13
2023-03-24T08:20:00.085Z,100604.84
2023-03-24T08:22:31.463Z,100604.02
2023-03-24T08:25:00.994Z,100596.23
2023-03-24T08:27:29.688Z,100596.83
2023-03-24T08:29:58.829Z,100595.77
2023-03-24T08:32:27.374Z,100595.02
2023-03-24T08:34:58.388Z,100586.94
2023-03-24T08:37:26.961Z,100593.23
2023-03-24T08:39:59.058Z,100592.16
2023-03-24T08:42:27.766Z,100587.98
2023-03-24T08:44:56.581Z,100584.80
2023-03-24T08:47:44.300Z,100589.48
2023-03-24T08:50:13.315Z,100585.70
2023-03-24T08:52:42.320Z,100585.48
2023-03-24T08:55:11.792Z,100584.17
2023-03-24T08:57:44.483Z,100584.07
2023-03-24T09:00:15.555Z,100581.24
2023-03-24T09:02:54.359Z,100578.16
2023-03-24T09:05:36.624Z,100573.55
2023-03-24T09:08:10.231Z,100575.37
2023-03-24T09:10:39.937Z,100576.05
2023-03-24T09:13:09.189Z,100574.85
2023-03-24T09:15:38.115Z,100573.65
2023-03-24T09:18:06.654Z,100579.20
2023-03-24T09:20:36.329Z,100585.54
2023-03-24T09:23:05.106Z,100587.52
2023-03-24T09:25:34.610Z,100591.43
2023-03-24T09:28:18.767Z,100588.69
2023-03-24T09:30:48.160Z,100576.05
2023-03-24T09:33:19.015Z,100571.35
2023-03-24T09:35:56.462Z,100569.48
2023-03-24T09:38:26.609Z,100574.85
2023-03-24T09:41:03.225Z,100578.11
2023-03-24T09:43:40.360Z,100576.21
2023-03-24T09:46:16.459Z,100569.05
2023-03-24T09:48:52.951Z,100558.86
2023-03-24T09:51:26.090Z,100563.83
2023-03-24T09:54:13.456Z,100557.83
2023-03-24T09:56:44.686Z,100557.84
2023-03-24T09:59:35.104Z,100552.90
2023-03-24T10:02:14.307Z,100543.65
2023-03-24T10:04:44.192Z,100536.95
2023-03-24T10:07:25.581Z,100534.90
2023-03-24T10:09:59.139Z,100532.58
2023-03-24T10:12:37.702Z,100534.24
2023-03-24T10:15:24.297Z,100534.29
2023-03-24T10:18:13.741Z,100537.09
2023-03-24T10:21:07.495Z,100533.38
2023-03-24T10:23:59.995Z,100529.28
2023-03-24T10:26:32.473Z,100528.02
2023-03-24T10:29:59.013Z,100524.38
2023-03-24T10:32:43.343Z,100523.58
2023-03-24T10:35:20.059Z,100521.86
2023-03-24T10:37:49.136Z,100516.80
2023-03-24T10:40:23.515Z,100511.14
2023-03-24T10:43:06.297Z,100506.60
2023-03-24T10:45:37.363Z,100506.39
2023-03-24T10:48:06.294Z,100500.91
2023-03-24T10:50:42.377Z,100502.20
2023-03-24T10:53:21.000Z,100500.42
2023-03-24T10:55:51.171Z,100497.36
2023-03-24T10:58:36.003Z,100494.30
2023-03-24T11:01:24.267Z,100491.35
2023-03-24T11:04:00.938Z,100492.92
2023-03-24T11:06:30.083Z,100489.83
2023-03-24T11:09:41.154Z,100480.54
2023-03-24T11:12:29.973Z,100481.33
2023-03-24T11:15:17.617Z,100477.12
2023-03-24T11:18:22.520Z,100482.02
2023-03-24T11:20:57.520Z,100480.48
2023-03-24T11:23:32.952Z,100481.27
2023-03-24T11:26:23.564Z,100480.45
2023-03-24T11:28:53.780Z,100477.54
2023-03-24T11:31:30.744Z,100471.77
2023-03-24T11:34:20.996Z,100467.91
2023-03-24T11:36:54.142Z,100471.73
2023-03-24T11:39:24.230Z,100477.16
2023-03-24T11:42:04.171Z,100476.36
2023-03-24T11:44:52.134Z,100473.02
2023-03-24T11:47:33.141Z,100470.41
2023-03-24T11:50:11.224Z,100469.58
2023-03-24T11:52:46.260Z,100467.31
2023-03-24T11:55:42.598Z,100462.42
2023-03-24T11:58:28.479Z,100458.02
2023-03-24T12:01:02.172Z,100455.81
2023-03-24T12:04:26.471Z,100458.27
2023-03-24T12:07:32.289Z,100452.94
2023-03-24T12:10:24.261Z,100449.70
2023-03-24T12:13:18.984Z,100445.67
2023-03-24T12:16:10.787Z,100441.87
2023-03-24T12:19:19.015Z,100437.14
2023-03-24T12:22:00.177Z,100443.25
2023-03-24T12:25:08.334Z,100437.79
2023-03-24T12:27:56.385Z,100440.70
2023-03-24T12:30:37.506Z,100439.50
2023-03-24T12:33:28.612Z,100436.34
2023-03-24T12:36:12.936Z,100435.89
2023-03-24T12:38:54.830Z,100434.02
2023-03-24T12:41:36.258Z,100438.50
2023-03-24T12:44:22.953Z,100437.13
2023-03-24T12:47:07.815Z,100435.59
2023-03-24T12:49:58.727Z,100441.36
2023-03-24T12:53:06.813Z,100434.11
2023-03-24T12:55:41.456Z,100429.86
2023-03-24T12:58:12.189Z,100431.46
2023-03-24T13:01:01.579Z,100432.08
2023-03-24T13:03:47.150Z,100425.84
2023-03-24T13:06:42.193Z,100421.05
2023-03-24T13:09:19.949Z,100423.16
2023-03-24T13:11:51.914Z,100423.16
2023-03-24T13:14:24.267Z,100415.58
2023-03-24T13:17:03.866Z,100414.54
2023-03-24T13:19:32.714Z,100418.27
2023-03-24T13:22:01.716Z,100415.98
2023-03-24T13:24:33.630Z,100408.00
2023-03-24T13:27:44.038Z,100410.02
2023-03-24T13:30:31.658Z,100408.31
2023-03-24T13:33:16.322Z,100412.62
2023-03-24T13:35:58.440Z,100408.61
2023-03-24T13:38:29.669Z,100406.89
2023-03-24T13:40:58.879Z,100407.11
2023-03-24T13:43:31.647Z,100402.50
2023-03-24T13:46:14.007Z,100400.51
2023-03-24T13:48:51.300Z,100398.70
2023-03-24T13:51:27.842Z,100395.68
2023-03-24T13:54:26.607Z,100389.48
2023-03-24T13:57:17.511Z,100384.70
2023-03-24T14:00:17.526Z,100380.96
2023-03-24T14:02:52.917Z,100386.19
2023-03-24T14:05:58.994Z,100386.41
2023-03-24T14:08:53.850Z,100379.73
2023-03-24T14:11:35.021Z,100375.87
2023-03-24T14:14:14.035Z,100371.29
2023-03-24T14:16:47.655Z,100367.59
2023-03-24T14:19:17.978Z,100367.09
2023-03-24T14:21:53.106Z,100366.42
2023-03-24T14:24:27.480Z,100366.46
2023-03-24T14:26:56.676Z,100363.66
2023-03-24T14:29:48.758Z,100361.39
2023-03-24T14:32:21.600Z,100357.89
2023-03-24T14:34:59.032Z,100353.84
2023-03-24T14:37:28.506Z,100351.38
2023-03-24T14:39:57.724Z,100352.11
2023-03-24T14:42:32.760Z,100352.09
2023-03-24T14:45:05.341Z,100348.92
2023-03-24T14:47:35.078Z,100348.23
2023-03-24T14:50:21.545Z,100352.91
2023-03-24T14:52:59.364Z,100349.60
2023-03-24T14:55:28.047Z,100352.38
2023-03-24T14:58:00.755Z,100351.20
2023-03-24T15:01:08.087Z,100351.66
2023-03-24T15:04:07.672Z,100353.18
2023-03-24T15:06:47.932Z,100350.81
2023-03-24T15:09:18.324Z,100351.59
2023-03-24T15:11:47.606Z,100350.08
2023-03-24T15:14:24.002Z,100352.30
2023-03-24T15:17:24.715Z,100351.96
2023-03-24T15:19:55.436Z,100353.65
2023-03-24T15:22:25.668Z,100352.10
2023-03-24T15:24:54.749Z,100357.47
2023-03-24T15:27:34.748Z,100354.85
2023-03-24T15:30:06.605Z,100356.68
2023-03-24T15:32:39.665Z,100358.50
2023-03-24T15:35:09.102Z,100359.97
2023-03-24T15:37:43.381Z,100359.85
2023-03-24T15:40:27.308Z,100357.96
2023-03-24T15:43:01.533Z,100357.67
2023-03-24T15:45:33.821Z,100358.77
2023-03-24T15:48:08.720Z,100359.55
2023-03-24T15:50:41.990Z,100358.92
2023-03-24T15:53:20.878Z,100358.31
2023-03-24T15:56:07.382Z,100357.88
2023-03-24T15:58:56.468Z,100359.02
2023-03-24T16:01:40.296Z,100361.41
2023-03-24T16:04:14.537Z,100362.71
2023-03-24T16:06:48.601Z,100363.35
2023-03-24T16:09:22.248Z,100364.12
2023-03-24T16:11:51.744Z,100366.84
2023-03-24T16:14:23.955Z,100369.08
2023-03-24T16:16:57.387Z,100365.78
2023-03-24T16:19:26.559Z,100366.42
2023-03-24T16:21:55.629Z,100368.51
2023-03-24T16:24:24.899Z,100366.87
2023-03-24T16:26:53.745Z,100368.45
2023-03-24T16:29:26.797Z,100373.59
2023-03-24T16:31:57.157Z,100376.24
2023-03-24T16:34:26.655Z,100380.48
2023-03-24T16:36:58.415Z,100380.62
2023-03-24T16:39:29.320Z,100384.50
2023-03-24T16:42:01.965Z,100393.17
